createdAt,value
2023-01-20T00:01:07.125Z,0.49
2023-01-20T00:03:34.902Z,0.48
2023-01-20T00:06:02.837Z,0.49
2023-01-20T00:08:30.630Z,0.59
2023-01-20T00:10:58.907Z,0.57
2023-01-20T00:13:28.068Z,0.61
2023-01-20T00:15:55.830Z,0.59
2023-01-20T00:18:23.625Z,0.62
2023-01-20T00:20:51.383Z,0.47
2023-01-20T00:23:19.130Z,0.46
2023-01-20T00:25:46.850Z,0.64
2023-01-20T00:28:14.668Z,0.59
2023-01-20T00:30:43.775Z,0.58
2023-01-20T00:33:11.585Z,0.63
2023-01-20T00:35:39.628Z,0.59
2023-01-20T00:38:07.373Z,0.63
2023-01-20T00:40:35.035Z,0.69
2023-01-20T00:43:02.776Z,0.65
2023-01-20T00:45:30.529Z,0.57
2023-01-20T00:47:59.600Z,0.57
2023-01-20T00:50:27.338Z,0.66
2023-01-20T00:52:56.348Z,0.62
2023-01-20T00:55:24.213Z,0.63
2023-01-20T00:57:52.000Z,0.63
2023-01-20T01:00:20.369Z,0.59
2023-01-20T01:02:48.111Z,0.58
2023-01-20T01:05:17.374Z,0.65
2023-01-20T01:07:45.134Z,0.56
2023-01-20T01:10:12.905Z,0.66
2023-01-20T01:12:40.668Z,0.50
2023-01-20T01:15:09.456Z,0.66
2023-01-20T01:17:37.226Z,0.62
2023-01-20T01:20:05.409Z,0.56
2023-01-20T01:22:34.473Z,0.56
2023-01-20T01:25:02.159Z,0.61
2023-01-20T01:27:30.294Z,0.63
2023-01-20T01:29:58.007Z,0.57
2023-01-20T01:32:25.702Z,0.40
2023-01-20T01:34:53.433Z,0.41
2023-01-20T01:37:21.193Z,0.55
2023-01-20T01:39:50.244Z,0.64
2023-01-20T01:42:20.465Z,0.68
2023-01-20T01:45:18.671Z,0.76
2023-01-20T01:47:50.363Z,0.66
2023-01-20T01:50:21.407Z,0.64
2023-01-20T01:52:52.231Z,0.71
2023-01-20T01:55:25.896Z,0.76
2023-01-20T01:57:54.676Z,0.69
2023-01-20T02:00:22.655Z,0.73
2023-01-20T02:02:50.662Z,0.73
2023-01-20T02:05:19.569Z,0.78
2023-01-20T02:07:49.157Z,0.74
2023-01-20T02:10:17.291Z,0.73
2023-01-20T02:12:49.571Z,0.58
2023-01-20T02:15:22.800Z,0.55
2023-01-20T02:18:08.187Z,0.58
2023-01-20T02:21:11.181Z,0.58
2023-01-20T02:24:08.565Z,0.56
2023-01-20T02:27:00.520Z,0.64
2023-01-20T02:30:03.895Z,0.59
2023-01-20T02:32:40.857Z,0.61
2023-01-20T02:35:13.037Z,0.70
2023-01-20T02:37:48.417Z,0.71
2023-01-20T02:40:27.792Z,0.82
2023-01-20T02:43:02.531Z,0.79
2023-01-20T02:45:39.596Z,0.77
2023-01-20T02:48:16.516Z,0.78
2023-01-20T02:50:53.452Z,0.74
2023-01-20T02:53:24.143Z,0.67
2023-01-20T02:55:55.539Z,0.73
2023-01-20T02:58:28.412Z,0.67
2023-01-20T03:00:59.668Z,0.72
2023-01-20T03:03:34.092Z,0.77
2023-01-20T03:06:05.074Z,0.68
2023-01-20T03:08:34.239Z,0.62
2023-01-20T03:11:07.047Z,0.69
2023-01-20T03:13:38.760Z,0.60
2023-01-20T03:16:10.070Z,0.54
2023-01-20T03:18:40.500Z,0.53
2023-01-20T03:21:09.978Z,0.59
2023-01-20T03:23:41.721Z,0.52
2023-01-20T03:26:11.250Z,0.51
2023-01-20T03:28:39.112Z,0.47
2023-01-20T03:31:15.126Z,0.46
2023-01-20T03:33:45.655Z,0.42
2023-01-20T03:36:13.885Z,0.51
2023-01-20T03:38:41.890Z,0.48
2023-01-20T03:41:19.371Z,0.55
2023-01-20T03:43:58.103Z,0.48
2023-01-20T03:46:33.403Z,0.47
2023-01-20T03:49:10.710Z,0.42
2023-01-20T03:51:50.524Z,0.38
2023-01-20T03:54:23.091Z,0.33
2023-01-20T03:56:57.355Z,0.19
2023-01-20T03:59:26.304Z,0.21
2023-01-20T04:01:55.574Z,0.20
2023-01-20T04:04:24.835Z,0.19
2023-01-20T04:06:53.860Z,0.26
2023-01-20T04:09:25.783Z,0.21
2023-01-20T04:11:53.527Z,0.14
2023-01-20T04:14:21.195Z,0.12
2023-01-20T04:16:54.314Z,0.15
2023-01-20T04:19:21.970Z,0.11
2023-01-20T04:21:56.897Z,0.12
2023-01-20T04:24:27.389Z,0.10
2023-01-20T04:26:55.056Z,0.12
2023-01-20T04:29:22.765Z,0.14
2023-01-20T04:31:50.537Z,0.05
2023-01-20T04:34:18.400Z,0.16
2023-01-20T04:36:46.121Z,0.22
2023-01-20T04:39:15.204Z,0.29
2023-01-20T04:41:42.974Z,0.26
2023-01-20T04:44:10.667Z,0.34
2023-01-20T04:46:38.411Z,0.38
2023-01-20T04:49:06.162Z,0.29
2023-01-20T04:51:34.445Z,0.23
2023-01-20T04:54:02.143Z,0.20
2023-01-20T04:56:31.239Z,0.26
2023-01-20T04:58:59.943Z,0.29
2023-01-20T05:01:27.747Z,0.31
2023-01-20T05:03:55.626Z,0.26
2023-01-20T05:06:23.309Z,0.31
2023-01-20T05:08:51.148Z,0.33
2023-01-20T05:11:19.377Z,0.39
2023-01-20T05:13:48.428Z,0.42
2023-01-20T05:16:21.810Z,0.35
2023-01-20T05:18:49.460Z,0.44
2023-01-20T05:21:17.164Z,0.37
2023-01-20T05:23:44.933Z,0.34
2023-01-20T05:26:12.675Z,0.34
2023-01-20T05:28:40.482Z,0.36
2023-01-20T05:31:09.959Z,0.26
2023-01-20T05:33:39.776Z,0.28
2023-01-20T05:36:08.182Z,0.29
2023-01-20T05:38:35.903Z,0.31
2023-01-20T05:41:04.935Z,0.36
2023-01-20T05:43:33.118Z,0.32
2023-01-20T05:46:01.300Z,0.35
2023-01-20T05:48:30.487Z,0.37
2023-01-20T05:50:58.207Z,0.37
2023-01-20T05:53:25.965Z,0.37
2023-01-20T05:56:00.479Z,0.38
2023-01-20T05:58:28.992Z,0.38
2023-01-20T06:00:56.864Z,0.39
2023-01-20T06:03:26.259Z,0.42
2023-01-20T06:06:00.898Z,0.23
2023-01-20T06:08:28.661Z,0.29
2023-01-20T06:10:56.486Z,0.34
2023-01-20T06:13:24.200Z,0.44
2023-01-20T06:15:53.719Z,0.51
2023-01-20T06:18:22.276Z,0.48
2023-01-20T06:20:50.182Z,0.52
2023-01-20T06:23:19.426Z,0.55
2023-01-20T06:25:47.081Z,0.62
2023-01-20T06:28:14.789Z,0.62
2023-01-20T06:30:43.219Z,0.65
2023-01-20T06:33:11.383Z,0.67
2023-01-20T06:35:39.175Z,0.66
2023-01-20T06:38:06.870Z,0.61
2023-01-20T06:40:35.964Z,0.45
2023-01-20T06:43:03.970Z,0.52
2023-01-20T06:45:31.819Z,0.50
2023-01-20T06:47:59.591Z,0.43
2023-01-20T06:50:27.304Z,0.52
2023-01-20T06:52:55.910Z,0.56
2023-01-20T06:55:23.820Z,0.61
2023-01-20T06:57:52.981Z,0.63
2023-01-20T07:00:21.770Z,0.62
2023-01-20T07:02:49.667Z,0.59
2023-01-20T07:05:17.586Z,0.58
2023-01-20T07:07:45.824Z,0.56
2023-01-20T07:10:14.077Z,0.54
2023-01-20T07:12:41.809Z,0.59
2023-01-20T07:15:12.232Z,0.61
2023-01-20T07:17:40.005Z,0.63
2023-01-20T07:20:09.212Z,0.63
2023-01-20T07:22:36.935Z,0.68
2023-01-20T07:25:04.861Z,0.76
2023-01-20T07:27:32.635Z,0.67
2023-01-20T07:30:00.277Z,0.62
2023-01-20T07:32:32.143Z,0.54
2023-01-20T07:34:59.906Z,0.58
2023-01-20T07:37:27.675Z,0.59
2023-01-20T07:39:55.338Z,0.69
2023-01-20T07:42:23.139Z,0.65
2023-01-20T07:44:50.938Z,0.63
2023-01-20T07:47:18.725Z,0.63
2023-01-20T07:49:47.793Z,0.73
2023-01-20T07:52:15.552Z,0.78
2023-01-20T07:54:43.343Z,0.77
2023-01-20T07:57:11.201Z,0.66
2023-01-20T07:59:38.991Z,0.65
2023-01-20T08:02:06.949Z,0.71
2023-01-20T08:04:35.157Z,0.75
2023-01-20T08:07:04.715Z,0.75
2023-01-20T08:09:32.460Z,0.66
2023-01-20T08:12:01.797Z,0.67
2023-01-20T08:14:29.561Z,0.72
2023-01-20T08:16:57.370Z,0.72
2023-01-20T08:19:25.380Z,0.67
2023-01-20T08:21:53.047Z,0.74
2023-01-20T08:24:22.222Z,0.74
2023-01-20T08:26:51.822Z,0.66
2023-01-20T08:29:19.516Z,0.67
2023-01-20T08:31:47.516Z,0.80
2023-01-20T08:34:16.193Z,0.73
2023-01-20T08:36:43.887Z,0.77
2023-01-20T08:39:19.048Z,0.77
2023-01-20T08:41:49.412Z,0.68
2023-01-20T08:44:18.312Z,0.72
2023-01-20T08:46:46.472Z,0.81
2023-01-20T08:49:16.089Z,0.78
2023-01-20T08:51:45.089Z,0.79
2023-01-20T08:54:14.699Z,0.82
2023-01-20T08:56:42.511Z,0.82
2023-01-20T08:59:11.830Z,0.87
2023-01-20T09:01:39.647Z,0.87
2023-01-20T09:04:07.975Z,0.84
2023-01-20T09:06:39.539Z,0.86
2023-01-20T09:09:07.404Z,0.89
2023-01-20T09:11:35.255Z,0.91
2023-01-20T09:14:03.165Z,0.92
2023-01-20T09:16:32.205Z,0.98
2023-01-20T09:18:59.911Z,0.99
2023-01-20T09:21:27.715Z,0.99
2023-01-20T09:23:55.539Z,1.12
2023-01-20T09:26:35.368Z,1.14
2023-01-20T09:29:09.559Z,1.08
2023-01-20T09:31:40.653Z,1.19
2023-01-20T09:34:08.536Z,1.13
2023-01-20T09:36:36.390Z,1.19
2023-01-20T09:39:21.744Z,1.21
2023-01-20T09:42:08.175Z,1.21
2023-01-20T09:44:49.537Z,1.27
2023-01-20T09:47:30.806Z,1.22
2023-01-20T09:50:39.899Z,1.20
2023-01-20T09:53:15.535Z,1.21
2023-01-20T09:55:48.394Z,1.10
2023-01-20T09:58:26.005Z,1.20
2023-01-20T10:01:01.018Z,1.12
2023-01-20T10:03:37.197Z,1.15
2023-01-20T10:06:10.837Z,1.20
2023-01-20T10:08:55.923Z,1.27
2023-01-20T10:11:37.074Z,1.38
2023-01-20T10:14:10.855Z,1.32
2023-01-20T10:16:45.336Z,1.38
2023-01-20T10:19:27.264Z,1.31
2023-01-20T10:22:06.204Z,1.35
2023-01-20T10:24:38.998Z,1.25
2023-01-20T10:27:06.734Z,1.27
2023-01-20T10:29:37.421Z,1.23
2023-01-20T10:32:11.270Z,1.32
2023-01-20T10:34:46.098Z,1.28
2023-01-20T10:37:16.190Z,1.30
2023-01-20T10:39:48.881Z,1.28
2023-01-20T10:42:19.018Z,1.10
2023-01-20T10:44:48.763Z,1.35
2023-01-20T10:47:22.200Z,1.54
2023-01-20T10:50:21.658Z,1.82
2023-01-20T10:53:09.376Z,1.96
2023-01-20T10:55:51.573Z,2.22
2023-01-20T10:58:23.749Z,2.35
2023-01-20T11:00:52.592Z,2.32
2023-01-20T11:03:22.426Z,2.12
2023-01-20T11:05:53.517Z,2.05
2023-01-20T11:08:23.834Z,2.23
2023-01-20T11:10:55.277Z,2.44
2023-01-20T11:13:23.158Z,2.47
2023-01-20T11:15:54.862Z,2.52
2023-01-20T11:18:28.053Z,2.57
2023-01-20T11:21:00.965Z,2.47
2023-01-20T11:23:37.534Z,2.47
2023-01-20T11:26:10.095Z,2.29
2023-01-20T11:28:51.921Z,2.46
2023-01-20T11:31:20.634Z,2.58
2023-01-20T11:33:59.580Z,2.58
2023-01-20T11:36:29.360Z,2.54
2023-01-20T11:38:58.400Z,2.33
2023-01-20T11:41:27.829Z,2.10
2023-01-20T11:43:57.057Z,2.27
2023-01-20T11:46:28.418Z,2.09
2023-01-20T11:49:18.216Z,2.13
2023-01-20T11:51:50.383Z,2.17
2023-01-20T11:54:20.697Z,2.17
2023-01-20T11:56:52.341Z,2.17
2023-01-20T11:59:24.201Z,2.33
2023-01-20T12:01:57.381Z,2.33
2023-01-20T12:04:42.383Z,2.48
2023-01-20T12:07:15.122Z,2.52
2023-01-20T12:09:47.927Z,2.45
2023-01-20T12:12:25.646Z,2.49
2023-01-20T12:14:59.299Z,2.59
2023-01-20T12:17:39.178Z,2.45
2023-01-20T12:20:13.099Z,2.31
2023-01-20T12:22:49.227Z,2.22
2023-01-20T12:25:21.595Z,2.24
2023-01-20T12:27:52.425Z,2.36
2023-01-20T12:30:38.782Z,2.06
2023-01-20T12:33:15.198Z,2.22
2023-01-20T12:35:49.203Z,2.17
2023-01-20T12:38:20.380Z,2.22
2023-01-20T12:40:50.280Z,2.14
2023-01-20T12:43:34.635Z,2.19
2023-01-20T12:46:26.290Z,2.03
2023-01-20T12:49:08.676Z,1.92
2023-01-20T12:51:45.860Z,1.80
2023-01-20T12:54:47.740Z,1.78
2023-01-20T12:57:36.841Z,1.70
2023-01-20T13:00:24.726Z,1.64
2023-01-20T13:03:36.724Z,1.67
2023-01-20T13:06:24.030Z,1.78
2023-01-20T13:09:02.049Z,1.69
2023-01-20T13:11:44.648Z,1.74
2023-01-20T13:14:16.436Z,1.75
2023-01-20T13:16:50.415Z,1.71
2023-01-20T13:19:25.200Z,1.66
2023-01-20T13:22:06.774Z,1.72
2023-01-20T13:24:36.138Z,1.74
2023-01-20T13:27:05.434Z,1.47
2023-01-20T13:29:44.899Z,1.64
2023-01-20T13:32:33.833Z,1.57
2023-01-20T13:35:03.373Z,1.51
2023-01-20T13:37:35.228Z,1.38
2023-01-20T13:40:03.345Z,1.49
2023-01-20T13:42:53.441Z,1.31
2023-01-20T13:45:27.458Z,1.40
2023-01-20T13:48:01.137Z,1.47
2023-01-20T13:50:31.870Z,1.53
2023-01-20T13:53:08.182Z,1.48
2023-01-20T13:55:53.780Z,1.60
2023-01-20T13:58:24.526Z,1.66
2023-01-20T14:00:54.135Z,1.75
2023-01-20T14:03:24.237Z,1.82
2023-01-20T14:05:54.070Z,1.79
2023-01-20T14:08:23.076Z,1.78
2023-01-20T14:10:51.132Z,1.73
2023-01-20T14:13:25.179Z,1.74
2023-01-20T14:15:54.895Z,1.57
2023-01-20T14:18:26.353Z,1.77
2023-01-20T14:21:01.056Z,1.67
2023-01-20T14:23:38.447Z,1.75
2023-01-20T14:26:10.206Z,1.85
2023-01-20T14:28:46.128Z,1.85
2023-01-20T14:31:22.956Z,1.80
2023-01-20T14:33:57.549Z,1.78
2023-01-20T14:36:27.563Z,1.86
2023-01-20T14:38:58.716Z,1.66
2023-01-20T14:41:29.702Z,1.61
2023-01-20T14:43:58.916Z,1.75
2023-01-20T14:46:28.109Z,1.73
2023-01-20T14:48:56.945Z,1.74
2023-01-20T14:51:25.121Z,1.73
2023-01-20T14:54:25.995Z,1.50
2023-01-20T14:56:53.840Z,1.35
2023-01-20T14:59:23.634Z,1.43
2023-01-20T15:01:56.544Z,1.46
2023-01-20T15:04:24.375Z,1.53
2023-01-20T15:06:54.143Z,1.48
2023-01-20T15:09:33.453Z,1.48
2023-01-20T15:12:33.768Z,1.43
2023-01-20T15:15:13.078Z,1.34
2023-01-20T15:17:58.461Z,1.39
2023-01-20T15:20:31.716Z,1.27
2023-01-20T15:22:59.911Z,1.29
2023-01-20T15:25:29.440Z,1.31
2023-01-20T15:27:58.196Z,1.24
2023-01-20T15:30:29.825Z,1.31
2023-01-20T15:32:57.841Z,1.26
2023-01-20T15:35:26.887Z,1.22
2023-01-20T15:37:55.564Z,1.17
2023-01-20T15:40:25.085Z,1.30
2023-01-20T15:42:54.176Z,1.22
2023-01-20T15:45:21.851Z,1.18
2023-01-20T15:47:51.004Z,1.19
2023-01-20T15:50:21.077Z,1.19
2023-01-20T15:52:49.268Z,1.15
2023-01-20T15:55:18.970Z,0.97
2023-01-20T15:57:50.630Z,0.95
2023-01-20T16:00:20.586Z,0.90
2023-01-20T16:02:48.312Z,0.93
2023-01-20T16:05:17.925Z,0.86
2023-01-20T16:07:47.760Z,0.90
2023-01-20T16:10:18.262Z,0.88
2023-01-20T16:12:46.762Z,0.85
2023-01-20T16:15:16.254Z,0.80
2023-01-20T16:17:44.264Z,0.76
2023-01-20T16:20:20.698Z,0.67
2023-01-20T16:22:48.614Z,0.64
2023-01-20T16:25:16.564Z,0.62
2023-01-20T16:27:44.310Z,0.61
2023-01-20T16:30:16.078Z,0.55
2023-01-20T16:32:46.186Z,0.54
2023-01-20T16:35:14.388Z,0.55
2023-01-20T16:37:44.147Z,0.55
2023-01-20T16:40:15.084Z,0.55
2023-01-20T16:42:43.726Z,0.50
2023-01-20T16:45:23.058Z,0.47
2023-01-20T16:47:51.219Z,0.46
2023-01-20T16:50:19.371Z,0.46
2023-01-20T16:52:48.795Z,0.42
2023-01-20T16:55:16.519Z,0.35
2023-01-20T16:57:44.572Z,0.33
2023-01-20T17:00:13.100Z,0.28
2023-01-20T17:02:40.782Z,0.22
2023-01-20T17:05:09.600Z,0.22
2023-01-20T17:07:37.227Z,0.20
2023-01-20T17:10:07.196Z,0.18
2023-01-20T17:12:35.226Z,0.15
2023-01-20T17:15:03.019Z,0.14
2023-01-20T17:17:30.647Z,0.09
2023-01-20T17:19:58.282Z,0.09
2023-01-20T17:22:26.044Z,0.02
2023-01-20T17:24:53.807Z,0.04
2023-01-20T17:27:22.845Z,0.04
2023-01-20T17:29:50.546Z,0.04
2023-01-20T17:32:18.211Z,0.02
2023-01-20T17:34:45.911Z,0.02
2023-01-20T17:37:13.600Z,0.02
2023-01-20T17:39:42.564Z,-0.07
2023-01-20T17:42:10.232Z,-0.13
2023-01-20T17:44:39.403Z,-0.17
2023-01-20T17:47:07.068Z,-0.20
2023-01-20T17:49:34.759Z,-0.19
2023-01-20T17:52:02.510Z,-0.21
2023-01-20T17:54:30.407Z,-0.24
2023-01-20T17:56:58.378Z,-0.21
2023-01-20T17:59:26.827Z,-0.26
2023-01-20T18:01:56.867Z,-0.31
2023-01-20T18:04:24.498Z,-0.27
2023-01-20T18:06:52.188Z,-0.24
2023-01-20T18:09:19.989Z,-0.21
2023-01-20T18:11:47.784Z,-0.26
2023-01-20T18:14:15.426Z,-0.30
2023-01-20T18:16:43.368Z,-0.33
2023-01-20T18:19:13.883Z,-0.35
2023-01-20T18:21:43.481Z,-0.33
2023-01-20T18:24:12.559Z,-0.38
2023-01-20T18:26:42.609Z,-0.38
2023-01-20T18:29:14.353Z,-0.44
2023-01-20T18:31:42.706Z,-0.51
2023-01-20T18:34:15.705Z,-0.59
2023-01-20T18:36:46.157Z,-0.59
2023-01-20T18:39:17.040Z,-0.62
2023-01-20T18:41:45.056Z,-0.62
2023-01-20T18:44:12.835Z,-0.65
2023-01-20T18:46:41.039Z,-0.65
2023-01-20T18:49:09.905Z,-0.65
2023-01-20T18:51:39.184Z,-0.65
2023-01-20T18:54:10.362Z,-0.63
2023-01-20T18:56:38.436Z,-0.64
2023-01-20T18:59:07.389Z,-0.66
2023-01-20T19:01:39.484Z,-0.73
2023-01-20T19:04:09.136Z,-0.71
2023-01-20T19:06:39.706Z,-0.72
2023-01-20T19:09:08.397Z,-0.66
2023-01-20T19:11:39.522Z,-0.65
2023-01-20T19:14:08.466Z,-0.63
2023-01-20T19:16:39.274Z,-0.61
2023-01-20T19:19:08.589Z,-0.73
2023-01-20T19:21:37.465Z,-0.80
2023-01-20T19:24:08.062Z,-0.84
2023-01-20T19:26:37.590Z,-0.88
2023-01-20T19:29:07.377Z,-0.88
2023-01-20T19:31:38.457Z,-0.93
2023-01-20T19:34:06.823Z,-0.93
2023-01-20T19:36:35.131Z,-0.96
2023-01-20T19:39:03.180Z,-0.97
2023-01-20T19:41:34.635Z,-1.02
2023-01-20T19:44:04.551Z,-1.04
2023-01-20T19:46:33.975Z,-1.08
2023-01-20T19:49:03.134Z,-1.10
2023-01-20T19:51:31.882Z,-1.11
2023-01-20T19:54:01.666Z,-1.10
2023-01-20T19:56:31.608Z,-1.10
2023-01-20T19:59:01.807Z,-1.09
2023-01-20T20:01:31.852Z,-1.11
2023-01-20T20:04:04.580Z,-1.15
2023-01-20T20:06:34.450Z,-1.13
2023-01-20T20:09:03.723Z,-1.14
2023-01-20T20:11:32.685Z,-1.17
2023-01-20T20:14:04.788Z,-1.14
2023-01-20T20:16:35.491Z,-1.14
2023-01-20T20:19:03.689Z,-1.12
2023-01-20T20:21:31.581Z,-1.12
2023-01-20T20:24:01.461Z,-1.12
2023-01-20T20:26:31.293Z,-1.13
2023-01-20T20:29:01.994Z,-1.18
2023-01-20T20:31:30.366Z,-1.23
2023-01-20T20:33:59.338Z,-1.23
2023-01-20T20:36:28.539Z,-1.27
2023-01-20T20:38:58.368Z,-1.25
2023-01-20T20:41:29.012Z,-1.23
2023-01-20T20:43:57.635Z,-1.25
2023-01-20T20:46:27.455Z,-1.29
2023-01-20T20:48:56.006Z,-1.34
2023-01-20T20:51:24.464Z,-1.36
2023-01-20T20:53:55.096Z,-1.41
2023-01-20T20:56:23.279Z,-1.42
2023-01-20T20:59:00.805Z,-1.43
2023-01-20T21:01:32.672Z,-1.41
2023-01-20T21:04:00.945Z,-1.40
2023-01-20T21:06:29.215Z,-1.43
2023-01-20T21:08:58.523Z,-1.42
2023-01-20T21:11:26.792Z,-1.49
2023-01-20T21:13:57.708Z,-1.49
2023-01-20T21:16:27.544Z,-1.48
2023-01-20T21:18:57.537Z,-1.44
2023-01-20T21:21:26.107Z,-1.44
2023-01-20T21:23:55.514Z,-1.44
2023-01-20T21:26:24.703Z,-1.39
2023-01-20T21:28:53.123Z,-1.35
2023-01-20T21:31:23.439Z,-1.34
2023-01-20T21:33:54.549Z,-1.44
2023-01-20T21:36:24.169Z,-1.46
2023-01-20T21:38:52.847Z,-1.46
2023-01-20T21:41:21.323Z,-1.51
2023-01-20T21:44:07.349Z,-1.50
2023-01-20T21:46:38.969Z,-1.53
2023-01-20T21:49:24.927Z,-1.52
2023-01-20T21:52:12.417Z,-1.54
2023-01-20T21:54:41.361Z,-1.52
2023-01-20T21:57:10.809Z,-1.54
2023-01-20T21:59:39.404Z,-1.52
2023-01-20T22:02:09.272Z,-1.54
2023-01-20T22:04:37.078Z,-1.55
2023-01-20T22:07:06.776Z,-1.64
2023-01-20T22:09:34.690Z,-1.62
2023-01-20T22:12:03.716Z,-1.59
2023-01-20T22:14:32.489Z,-1.65
2023-01-20T22:17:00.318Z,-1.68
2023-01-20T22:19:28.666Z,-1.66
2023-01-20T22:21:57.806Z,-1.62
2023-01-20T22:24:27.375Z,-1.61
2023-01-20T22:26:57.012Z,-1.69
2023-01-20T22:29:27.632Z,-1.74
2023-01-20T22:31:59.444Z,-1.79
2023-01-20T22:34:27.514Z,-1.81
2023-01-20T22:36:56.252Z,-1.83
2023-01-20T22:39:24.705Z,-1.74
2023-01-20T22:41:54.105Z,-1.71
2023-01-20T22:44:21.836Z,-1.83
2023-01-20T22:46:49.584Z,-1.93
2023-01-20T22:49:17.602Z,-1.98
2023-01-20T22:51:45.530Z,-2.03
2023-01-20T22:54:13.440Z,-2.01
2023-01-20T22:56:41.284Z,-2.04
2023-01-20T22:59:13.171Z,-1.99
2023-01-20T23:01:43.463Z,-1.97
2023-01-20T23:04:11.918Z,-2.09
2023-01-20T23:06:41.184Z,-2.03
2023-01-20T23:09:11.443Z,-2.07
2023-01-20T23:11:40.540Z,-2.14
2023-01-20T23:14:12.838Z,-2.08
2023-01-20T23:16:41.832Z,-2.12
2023-01-20T23:19:10.168Z,-2.17
2023-01-20T23:21:37.941Z,-2.12
2023-01-20T23:24:05.989Z,-2.16
2023-01-20T23:26:34.336Z,-2.16
2023-01-20T23:29:02.170Z,-2.21
2023-01-20T23:31:35.053Z,-2.28
2023-01-20T23:34:02.807Z,-2.25
2023-01-20T23:36:30.650Z,-2.28
2023-01-20T23:38:58.475Z,-2.25
2023-01-20T23:41:26.395Z,-2.28
2023-01-20T23:43:54.161Z,-2.37
2023-01-20T23:46:22.245Z,-2.38
2023-01-20T23:48:51.354Z,-2.40
2023-01-20T23:51:19.143Z,-2.37
2023-01-20T23:53:47.240Z,-2.40
2023-01-20T23:56:17.195Z,-2.38
2023-01-20T23:58:45.378Z,-2.34
